This is the latest recevied weather packets stored in our database for station/object WD7OO. If no packets are shown the sender has not sent any weather packets the latest 10 day(s).
| Time | Temp. | Humidity | Pressure | Rain* | Wind** | Luminosity | Snow |
|---|---|---|---|---|---|---|---|
| 1788212701 | 27.78° C | 83% | 1015.7 hPa | 0 mm | - | 32 W/m² | - |
| 1788212396 | 27.78° C | 81% | 1015.5 hPa | 0 mm | - | 37 W/m² | - |
| 1788212093 | 28.33° C | 82% | 1015.1 hPa | 0 mm | - | 39 W/m² | - |
| 1788211793 | 28.33° C | 80% | 1015.4 hPa | 0 mm | - | 47 W/m² | - |
| 1788211489 | 28.33° C | 80% | 1015.3 hPa | 0 mm | - | 62 W/m² | - |
| 1788211183 | 28.89° C | 80% | 1015.1 hPa | 0 mm | - | 79 W/m² | - |
| 1788210878 | 28.89° C | 80% | 1014.8 hPa | 0 mm | - | 102 W/m² | - |
| 1788210577 | 28.89° C | 78% | 1014.9 hPa | 0 mm | - | 122 W/m² | - |
| 1788210273 | 29.44° C | 78% | 1014.9 hPa | 0 mm | - | 129 W/m² | - |
| 1788209969 | 29.44° C | 77% | 1014.8 hPa | 0 mm | - | 141 W/m² | - |
| 1788209664 | 29.44° C | 75% | 1014.7 hPa | 0 mm | - | 172 W/m² | - |
| 1788209360 | 30° C | 77% | 1015.2 hPa | 0 mm | - | 263 W/m² | - |
| 1788209058 | 30° C | 75% | 1015.3 hPa | 0 mm | - | 314 W/m² | - |
| 1788208752 | 30.56° C | 73% | 1014.9 hPa | 0 mm | - | 243 W/m² | - |
| 1788208447 | 30.56° C | 76% | 1015.3 hPa | 0 mm | - | 392 W/m² | - |
| 1788208145 | 30.56° C | 74% | 1015.2 hPa | 0 mm | - | 399 W/m² | - |
| 1788207841 | 30.56° C | 73% | 1015.1 hPa | 0 mm | - | 408 W/m² | - |
| 1788207540 | 30° C | 74% | 1015.2 hPa | 0 mm | - | 481 W/m² | - |
| 1788207239 | 30° C | 75% | 1014.9 hPa | 0 mm | - | 438 W/m² | - |
| 1788206935 | 30° C | 75% | 1015.3 hPa | 0 mm | - | 492 W/m² | - |
| 1788206630 | 29.44° C | 75% | 1015.3 hPa | 0 mm | - | 547 W/m² | - |
| 1788206325 | 30° C | 73% | 1015.5 hPa | 0 mm | - | 547 W/m² | - |
| 1788206021 | 30° C | 74% | 1015.5 hPa | 0 mm | - | 514 W/m² | - |
| 1788205716 | 29.44° C | 75% | 1015.5 hPa | 0 mm | - | 499 W/m² | - |
| 1788205411 | 29.44° C | 75% | 1015.6 hPa | 0 mm | - | 524 W/m² | - |
* Rain latest hour (hover to see other rain measurements)
** Current wind speed in m/s (hover to see current wind gust speed)